sensor_id;sensor_type;location;lat;lon;timestamp;P1;durP1;ratioP1;P2;durP2;ratioP2
10882;SDS011;5494;51.796;10.952;2023-05-24T00:00:30;11.17;;;3.17;;
10882;SDS011;5494;51.796;10.952;2023-05-24T00:02:58;13.00;;;3.80;;
10882;SDS011;5494;51.796;10.952;2023-05-24T00:05:28;13.00;;;3.40;;
10882;SDS011;5494;51.796;10.952;2023-05-24T00:07:56;15.47;;;4.70;;
10882;SDS011;5494;51.796;10.952;2023-05-24T00:10:25;13.90;;;3.53;;
10882;SDS011;5494;51.796;10.952;2023-05-24T00:12:53;11.57;;;4.17;;
10882;SDS011;5494;51.796;10.952;2023-05-24T00:15:21;18.20;;;4.13;;
10882;SDS011;5494;51.796;10.952;2023-05-24T00:17:51;17.33;;;5.00;;
10882;SDS011;5494;51.796;10.952;2023-05-24T00:20:19;13.23;;;3.80;;
10882;SDS011;5494;51.796;10.952;2023-05-24T00:22:47;11.53;;;4.17;;
10882;SDS011;5494;51.796;10.952;2023-05-24T00:25:15;11.80;;;3.63;;
10882;SDS011;5494;51.796;10.952;2023-05-24T00:27:43;15.70;;;3.97;;
10882;SDS011;5494;51.796;10.952;2023-05-24T00:30:11;15.97;;;3.67;;
10882;SDS011;5494;51.796;10.952;2023-05-24T00:32:39;10.50;;;3.33;;
10882;SDS011;5494;51.796;10.952;2023-05-24T00:35:09;8.73;;;3.57;;
10882;SDS011;5494;51.796;10.952;2023-05-24T00:37:37;13.63;;;3.93;;
10882;SDS011;5494;51.796;10.952;2023-05-24T00:40:13;8.87;;;3.10;;
10882;SDS011;5494;51.796;10.952;2023-05-24T00:42:41;13.67;;;4.30;;
10882;SDS011;5494;51.796;10.952;2023-05-24T00:45:09;10.70;;;3.63;;
10882;SDS011;5494;51.796;10.952;2023-05-24T00:47:38;11.63;;;3.73;;
10882;SDS011;5494;51.796;10.952;2023-05-24T00:50:09;8.00;;;2.70;;
10882;SDS011;5494;51.796;10.952;2023-05-24T00:52:39;15.77;;;3.63;;
10882;SDS011;5494;51.796;10.952;2023-05-24T00:55:10;10.57;;;4.50;;
10882;SDS011;5494;51.796;10.952;2023-05-24T00:57:38;12.83;;;3.97;;
10882;SDS011;5494;51.796;10.952;2023-05-24T01:00:07;16.73;;;5.13;;
10882;SDS011;5494;51.796;10.952;2023-05-24T01:02:38;12.57;;;3.17;;
10882;SDS011;5494;51.796;10.952;2023-05-24T01:05:09;14.03;;;3.50;;
10882;SDS011;5494;51.796;10.952;2023-05-24T01:07:44;12.60;;;3.50;;
10882;SDS011;5494;51.796;10.952;2023-05-24T01:10:28;14.37;;;3.87;;
10882;SDS011;5494;51.796;10.952;2023-05-24T01:13:10;15.53;;;3.60;;
10882;SDS011;5494;51.796;10.952;2023-05-24T01:15:54;12.87;;;3.53;;
10882;SDS011;5494;51.796;10.952;2023-05-24T01:18:32;14.57;;;3.70;;
10882;SDS011;5494;51.796;10.952;2023-05-24T01:21:12;17.37;;;3.67;;
10882;SDS011;5494;51.796;10.952;2023-05-24T01:24:08;16.40;;;3.83;;
10882;SDS011;5494;51.796;10.952;2023-05-24T01:27:00;9.23;;;3.40;;
10882;SDS011;5494;51.796;10.952;2023-05-24T01:29:34;14.63;;;3.77;;
10882;SDS011;5494;51.796;10.952;2023-05-24T01:32:03;10.57;;;3.43;;
10882;SDS011;5494;51.796;10.952;2023-05-24T01:34:33;12.17;;;3.30;;
10882;SDS011;5494;51.796;10.952;2023-05-24T01:37:01;10.87;;;3.27;;
10882;SDS011;5494;51.796;10.952;2023-05-24T01:39:30;16.40;;;4.00;;
10882;SDS011;5494;51.796;10.952;2023-05-24T01:42:02;12.93;;;3.67;;
10882;SDS011;5494;51.796;10.952;2023-05-24T01:44:38;17.07;;;3.93;;
10882;SDS011;5494;51.796;10.952;2023-05-24T01:47:15;13.40;;;3.70;;
10882;SDS011;5494;51.796;10.952;2023-05-24T01:49:58;13.07;;;3.10;;
10882;SDS011;5494;51.796;10.952;2023-05-24T01:52:37;15.03;;;4.20;;
10882;SDS011;5494;51.796;10.952;2023-05-24T01:55:10;14.73;;;3.53;;
10882;SDS011;5494;51.796;10.952;2023-05-24T01:57:44;15.50;;;3.70;;
10882;SDS011;5494;51.796;10.952;2023-05-24T02:00:17;15.83;;;4.13;;
10882;SDS011;5494;51.796;10.952;2023-05-24T02:02:46;15.27;;;3.67;;
10882;SDS011;5494;51.796;10.952;2023-05-24T02:05:16;16.40;;;3.90;;
10882;SDS011;5494;51.796;10.952;2023-05-24T02:07:44;14.47;;;4.13;;
10882;SDS011;5494;51.796;10.952;2023-05-24T02:10:12;18.30;;;5.17;;
10882;SDS011;5494;51.796;10.952;2023-05-24T02:12:40;15.83;;;4.30;;
10882;SDS011;5494;51.796;10.952;2023-05-24T02:15:10;13.53;;;4.13;;
10882;SDS011;5494;51.796;10.952;2023-05-24T02:17:40;9.17;;;4.30;;
10882;SDS011;5494;51.796;10.952;2023-05-24T02:20:09;16.40;;;4.37;;
10882;SDS011;5494;51.796;10.952;2023-05-24T02:22:39;14.60;;;4.60;;
10882;SDS011;5494;51.796;10.952;2023-05-24T02:25:07;14.10;;;3.93;;
10882;SDS011;5494;51.796;10.952;2023-05-24T02:27:35;16.13;;;3.80;;
10882;SDS011;5494;51.796;10.952;2023-05-24T02:30:04;13.40;;;4.23;;
10882;SDS011;5494;51.796;10.952;2023-05-24T02:32:35;15.80;;;4.67;;
10882;SDS011;5494;51.796;10.952;2023-05-24T02:35:03;16.97;;;4.17;;
10882;SDS011;5494;51.796;10.952;2023-05-24T02:37:33;13.73;;;4.93;;
10882;SDS011;5494;51.796;10.952;2023-05-24T02:40:01;20.57;;;4.73;;
10882;SDS011;5494;51.796;10.952;2023-05-24T02:42:30;11.43;;;4.20;;
10882;SDS011;5494;51.796;10.952;2023-05-24T02:44:58;19.43;;;4.17;;
10882;SDS011;5494;51.796;10.952;2023-05-24T02:47:26;13.60;;;3.97;;
10882;SDS011;5494;51.796;10.952;2023-05-24T02:49:56;14.50;;;4.07;;
10882;SDS011;5494;51.796;10.952;2023-05-24T02:52:23;19.67;;;4.83;;
10882;SDS011;5494;51.796;10.952;2023-05-24T02:54:52;17.13;;;4.10;;
10882;SDS011;5494;51.796;10.952;2023-05-24T02:57:20;12.33;;;3.73;;
10882;SDS011;5494;51.796;10.952;2023-05-24T02:59:49;16.60;;;3.77;;
10882;SDS011;5494;51.796;10.952;2023-05-24T03:02:18;15.30;;;4.10;;
10882;SDS011;5494;51.796;10.952;2023-05-24T03:04:47;15.67;;;4.67;;
10882;SDS011;5494;51.796;10.952;2023-05-24T03:07:16;15.73;;;4.13;;
10882;SDS011;5494;51.796;10.952;2023-05-24T03:09:45;13.60;;;4.93;;
10882;SDS011;5494;51.796;10.952;2023-05-24T03:12:13;9.17;;;3.77;;
10882;SDS011;5494;51.796;10.952;2023-05-24T03:14:41;20.37;;;4.20;;
10882;SDS011;5494;51.796;10.952;2023-05-24T03:17:09;19.93;;;5.60;;
10882;SDS011;5494;51.796;10.952;2023-05-24T03:19:37;17.70;;;4.47;;
10882;SDS011;5494;51.796;10.952;2023-05-24T03:22:05;12.17;;;4.13;;
10882;SDS011;5494;51.796;10.952;2023-05-24T03:24:35;10.63;;;4.43;;
10882;SDS011;5494;51.796;10.952;2023-05-24T03:27:04;12.53;;;4.37;;
10882;SDS011;5494;51.796;10.952;2023-05-24T03:29:32;15.23;;;4.53;;
10882;SDS011;5494;51.796;10.952;2023-05-24T03:32:00;19.77;;;4.90;;
10882;SDS011;5494;51.796;10.952;2023-05-24T03:34:29;11.87;;;4.07;;
10882;SDS011;5494;51.796;10.952;2023-05-24T03:36:57;16.47;;;4.90;;
10882;SDS011;5494;51.796;10.952;2023-05-24T03:39:25;15.03;;;4.40;;
10882;SDS011;5494;51.796;10.952;2023-05-24T03:42:01;12.60;;;3.90;;
10882;SDS011;5494;51.796;10.952;2023-05-24T03:44:30;16.67;;;4.77;;
10882;SDS011;5494;51.796;10.952;2023-05-24T03:46:58;11.97;;;4.13;;
10882;SDS011;5494;51.796;10.952;2023-05-24T03:49:26;15.33;;;4.17;;
10882;SDS011;5494;51.796;10.952;2023-05-24T03:51:57;12.10;;;3.93;;
10882;SDS011;5494;51.796;10.952;2023-05-24T03:54:26;13.60;;;4.33;;
10882;SDS011;5494;51.796;10.952;2023-05-24T03:56:54;11.80;;;4.00;;
10882;SDS011;5494;51.796;10.952;2023-05-24T03:59:24;15.50;;;4.50;;
10882;SDS011;5494;51.796;10.952;2023-05-24T04:01:53;14.67;;;4.37;;
10882;SDS011;5494;51.796;10.952;2023-05-24T04:04:21;12.43;;;3.87;;
10882;SDS011;5494;51.796;10.952;2023-05-24T04:06:50;13.13;;;4.20;;
10882;SDS011;5494;51.796;10.952;2023-05-24T04:09:20;14.63;;;5.47;;
10882;SDS011;5494;51.796;10.952;2023-05-24T04:11:48;12.13;;;3.60;;
10882;SDS011;5494;51.796;10.952;2023-05-24T04:14:17;14.50;;;3.97;;
10882;SDS011;5494;51.796;10.952;2023-05-24T04:16:46;19.27;;;3.83;;
10882;SDS011;5494;51.796;10.952;2023-05-24T04:19:14;22.13;;;4.30;;
10882;SDS011;5494;51.796;10.952;2023-05-24T04:21:42;14.70;;;3.83;;
10882;SDS011;5494;51.796;10.952;2023-05-24T04:24:11;13.40;;;3.97;;
10882;SDS011;5494;51.796;10.952;2023-05-24T04:26:42;15.57;;;4.30;;
10882;SDS011;5494;51.796;10.952;2023-05-24T04:29:10;22.27;;;4.53;;
10882;SDS011;5494;51.796;10.952;2023-05-24T04:31:39;16.27;;;4.10;;
10882;SDS011;5494;51.796;10.952;2023-05-24T04:34:09;14.07;;;4.03;;
10882;SDS011;5494;51.796;10.952;2023-05-24T04:36:42;15.77;;;4.20;;
10882;SDS011;5494;51.796;10.952;2023-05-24T04:39:10;16.30;;;4.60;;
10882;SDS011;5494;51.796;10.952;2023-05-24T04:41:38;20.67;;;4.93;;
10882;SDS011;5494;51.796;10.952;2023-05-24T04:44:06;20.03;;;6.10;;
10882;SDS011;5494;51.796;10.952;2023-05-24T04:46:35;19.37;;;4.73;;
10882;SDS011;5494;51.796;10.952;2023-05-24T04:49:03;15.47;;;5.03;;
10882;SDS011;5494;51.796;10.952;2023-05-24T04:51:34;16.10;;;4.33;;
10882;SDS011;5494;51.796;10.952;2023-05-24T04:54:04;14.83;;;4.40;;
10882;SDS011;5494;51.796;10.952;2023-05-24T04:56:34;16.60;;;4.77;;
10882;SDS011;5494;51.796;10.952;2023-05-24T04:59:03;13.27;;;4.10;;
10882;SDS011;5494;51.796;10.952;2023-05-24T05:01:32;15.73;;;4.40;;
10882;SDS011;5494;51.796;10.952;2023-05-24T05:04:01;20.37;;;4.80;;
10882;SDS011;5494;51.796;10.952;2023-05-24T05:06:30;16.70;;;4.80;;
10882;SDS011;5494;51.796;10.952;2023-05-24T05:09:01;15.80;;;4.70;;
10882;SDS011;5494;51.796;10.952;2023-05-24T05:11:29;19.80;;;5.30;;
10882;SDS011;5494;51.796;10.952;2023-05-24T05:13:57;15.50;;;4.80;;
10882;SDS011;5494;51.796;10.952;2023-05-24T05:16:25;12.53;;;4.77;;
10882;SDS011;5494;51.796;10.952;2023-05-24T05:18:53;23.73;;;5.87;;
10882;SDS011;5494;51.796;10.952;2023-05-24T05:21:21;14.23;;;4.87;;
10882;SDS011;5494;51.796;10.952;2023-05-24T05:23:49;20.47;;;5.00;;
10882;SDS011;5494;51.796;10.952;2023-05-24T05:26:19;15.60;;;4.93;;
10882;SDS011;5494;51.796;10.952;2023-05-24T05:28:47;18.50;;;4.97;;
10882;SDS011;5494;51.796;10.952;2023-05-24T05:31:15;18.83;;;5.03;;
10882;SDS011;5494;51.796;10.952;2023-05-24T05:33:43;15.60;;;4.47;;
10882;SDS011;5494;51.796;10.952;2023-05-24T05:36:12;16.43;;;4.40;;
10882;SDS011;5494;51.796;10.952;2023-05-24T05:38:40;14.77;;;4.60;;
10882;SDS011;5494;51.796;10.952;2023-05-24T05:41:08;16.17;;;5.47;;
10882;SDS011;5494;51.796;10.952;2023-05-24T05:43:37;13.67;;;4.37;;
10882;SDS011;5494;51.796;10.952;2023-05-24T05:46:05;12.40;;;4.27;;
10882;SDS011;5494;51.796;10.952;2023-05-24T05:48:33;17.53;;;4.30;;
10882;SDS011;5494;51.796;10.952;2023-05-24T05:51:02;8.60;;;3.77;;
10882;SDS011;5494;51.796;10.952;2023-05-24T05:53:32;9.87;;;3.70;;
10882;SDS011;5494;51.796;10.952;2023-05-24T05:56:00;16.43;;;4.93;;
10882;SDS011;5494;51.796;10.952;2023-05-24T05:58:28;14.43;;;4.60;;
10882;SDS011;5494;51.796;10.952;2023-05-24T06:00:57;12.77;;;4.40;;
10882;SDS011;5494;51.796;10.952;2023-05-24T06:03:25;15.50;;;4.47;;
10882;SDS011;5494;51.796;10.952;2023-05-24T06:05:54;16.50;;;5.00;;
10882;SDS011;5494;51.796;10.952;2023-05-24T06:08:21;15.37;;;4.60;;
10882;SDS011;5494;51.796;10.952;2023-05-24T06:10:49;18.23;;;5.00;;
10882;SDS011;5494;51.796;10.952;2023-05-24T06:13:18;12.10;;;4.60;;
10882;SDS011;5494;51.796;10.952;2023-05-24T06:15:46;11.93;;;4.17;;
10882;SDS011;5494;51.796;10.952;2023-05-24T06:18:16;14.23;;;3.97;;
10882;SDS011;5494;51.796;10.952;2023-05-24T06:20:44;12.40;;;5.03;;
10882;SDS011;5494;51.796;10.952;2023-05-24T06:23:12;18.27;;;4.77;;
10882;SDS011;5494;51.796;10.952;2023-05-24T06:25:40;14.60;;;4.93;;
10882;SDS011;5494;51.796;10.952;2023-05-24T06:28:09;14.47;;;4.40;;
10882;SDS011;5494;51.796;10.952;2023-05-24T06:30:37;12.87;;;4.33;;
10882;SDS011;5494;51.796;10.952;2023-05-24T06:33:05;14.17;;;4.50;;
10882;SDS011;5494;51.796;10.952;2023-05-24T06:35:35;17.03;;;4.70;;
10882;SDS011;5494;51.796;10.952;2023-05-24T06:38:03;17.73;;;4.73;;
10882;SDS011;5494;51.796;10.952;2023-05-24T06:40:31;16.40;;;4.07;;
10882;SDS011;5494;51.796;10.952;2023-05-24T06:42:59;13.87;;;4.17;;
10882;SDS011;5494;51.796;10.952;2023-05-24T06:45:27;10.73;;;4.37;;
10882;SDS011;5494;51.796;10.952;2023-05-24T06:47:56;12.57;;;4.47;;
10882;SDS011;5494;51.796;10.952;2023-05-24T06:50:26;13.20;;;4.00;;
10882;SDS011;5494;51.796;10.952;2023-05-24T06:52:55;13.00;;;4.10;;
10882;SDS011;5494;51.796;10.952;2023-05-24T06:55:23;15.60;;;4.53;;
10882;SDS011;5494;51.796;10.952;2023-05-24T06:57:51;13.90;;;4.30;;
10882;SDS011;5494;51.796;10.952;2023-05-24T07:00:19;19.67;;;5.00;;
10882;SDS011;5494;51.796;10.952;2023-05-24T07:02:48;13.50;;;4.00;;
10882;SDS011;5494;51.796;10.952;2023-05-24T07:05:16;14.00;;;4.47;;
10882;SDS011;5494;51.796;10.952;2023-05-24T07:07:45;10.50;;;3.90;;
10882;SDS011;5494;51.796;10.952;2023-05-24T07:10:14;14.37;;;4.00;;
10882;SDS011;5494;51.796;10.952;2023-05-24T07:12:42;10.13;;;4.17;;
10882;SDS011;5494;51.796;10.952;2023-05-24T07:15:10;11.00;;;3.87;;
10882;SDS011;5494;51.796;10.952;2023-05-24T07:17:39;12.10;;;4.13;;
10882;SDS011;5494;51.796;10.952;2023-05-24T07:20:07;9.37;;;4.03;;
10882;SDS011;5494;51.796;10.952;2023-05-24T07:22:39;16.73;;;4.40;;
10882;SDS011;5494;51.796;10.952;2023-05-24T07:25:09;11.03;;;3.93;;
10882;SDS011;5494;51.796;10.952;2023-05-24T07:27:38;11.20;;;4.40;;
10882;SDS011;5494;51.796;10.952;2023-05-24T07:30:06;13.33;;;4.50;;
10882;SDS011;5494;51.796;10.952;2023-05-24T07:32:55;15.27;;;4.40;;
10882;SDS011;5494;51.796;10.952;2023-05-24T07:35:23;12.07;;;4.13;;
10882;SDS011;5494;51.796;10.952;2023-05-24T07:37:51;14.07;;;4.43;;
10882;SDS011;5494;51.796;10.952;2023-05-24T07:40:19;12.03;;;4.57;;
10882;SDS011;5494;51.796;10.952;2023-05-24T07:42:49;14.50;;;4.33;;
10882;SDS011;5494;51.796;10.952;2023-05-24T07:45:17;15.80;;;4.40;;
10882;SDS011;5494;51.796;10.952;2023-05-24T07:47:46;12.37;;;4.20;;
10882;SDS011;5494;51.796;10.952;2023-05-24T07:50:14;12.47;;;4.93;;
10882;SDS011;5494;51.796;10.952;2023-05-24T07:52:42;17.60;;;5.33;;
10882;SDS011;5494;51.796;10.952;2023-05-24T07:55:10;14.07;;;4.10;;
10882;SDS011;5494;51.796;10.952;2023-05-24T07:57:39;16.37;;;4.17;;
10882;SDS011;5494;51.796;10.952;2023-05-24T08:00:09;14.23;;;4.43;;
10882;SDS011;5494;51.796;10.952;2023-05-24T08:02:40;11.50;;;3.97;;
10882;SDS011;5494;51.796;10.952;2023-05-24T08:05:10;12.17;;;3.93;;
10882;SDS011;5494;51.796;10.952;2023-05-24T08:07:39;9.37;;;3.80;;
10882;SDS011;5494;51.796;10.952;2023-05-24T08:10:08;15.73;;;4.37;;
10882;SDS011;5494;51.796;10.952;2023-05-24T08:12:39;8.73;;;3.97;;
10882;SDS011;5494;51.796;10.952;2023-05-24T08:15:09;10.57;;;3.70;;
10882;SDS011;5494;51.796;10.952;2023-05-24T08:17:37;11.93;;;4.00;;
10882;SDS011;5494;51.796;10.952;2023-05-24T08:20:06;11.50;;;3.93;;
10882;SDS011;5494;51.796;10.952;2023-05-24T08:22:38;12.40;;;4.00;;
10882;SDS011;5494;51.796;10.952;2023-05-24T08:25:07;32.73;;;6.43;;
10882;SDS011;5494;51.796;10.952;2023-05-24T08:27:36;8.63;;;3.50;;
10882;SDS011;5494;51.796;10.952;2023-05-24T08:30:04;10.67;;;3.20;;
10882;SDS011;5494;51.796;10.952;2023-05-24T08:32:38;13.07;;;4.13;;
10882;SDS011;5494;51.796;10.952;2023-05-24T08:35:06;11.13;;;3.50;;
10882;SDS011;5494;51.796;10.952;2023-05-24T08:37:45;10.50;;;3.97;;
10882;SDS011;5494;51.796;10.952;2023-05-24T08:40:14;14.17;;;3.73;;
10882;SDS011;5494;51.796;10.952;2023-05-24T08:42:43;13.43;;;3.73;;
10882;SDS011;5494;51.796;10.952;2023-05-24T08:45:14;16.10;;;3.97;;
10882;SDS011;5494;51.796;10.952;2023-05-24T08:47:43;10.93;;;4.00;;
10882;SDS011;5494;51.796;10.952;2023-05-24T08:50:14;12.93;;;4.30;;
10882;SDS011;5494;51.796;10.952;2023-05-24T08:52:42;15.03;;;4.57;;
10882;SDS011;5494;51.796;10.952;2023-05-24T08:55:12;12.97;;;3.90;;
10882;SDS011;5494;51.796;10.952;2023-05-24T08:57:42;11.43;;;4.00;;
10882;SDS011;5494;51.796;10.952;2023-05-24T09:00:12;11.20;;;4.40;;
10882;SDS011;5494;51.796;10.952;2023-05-24T09:02:44;14.40;;;4.70;;
10882;SDS011;5494;51.796;10.952;2023-05-24T09:05:13;12.17;;;4.13;;
10882;SDS011;5494;51.796;10.952;2023-05-24T09:07:43;11.17;;;3.57;;
10882;SDS011;5494;51.796;10.952;2023-05-24T09:10:12;11.83;;;3.80;;
10882;SDS011;5494;51.796;10.952;2023-05-24T09:12:43;10.60;;;4.20;;
10882;SDS011;5494;51.796;10.952;2023-05-24T09:15:17;11.90;;;3.80;;
10882;SDS011;5494;51.796;10.952;2023-05-24T09:17:45;10.03;;;3.37;;
10882;SDS011;5494;51.796;10.952;2023-05-24T09:20:14;11.93;;;4.27;;
10882;SDS011;5494;51.796;10.952;2023-05-24T09:22:42;9.70;;;3.40;;
10882;SDS011;5494;51.796;10.952;2023-05-24T09:25:13;11.47;;;4.33;;
10882;SDS011;5494;51.796;10.952;2023-05-24T09:27:41;9.03;;;4.03;;
10882;SDS011;5494;51.796;10.952;2023-05-24T09:30:16;10.77;;;4.17;;
10882;SDS011;5494;51.796;10.952;2023-05-24T09:32:54;13.93;;;4.20;;
10882;SDS011;5494;51.796;10.952;2023-05-24T09:35:24;11.90;;;4.00;;
10882;SDS011;5494;51.796;10.952;2023-05-24T09:37:54;12.10;;;4.20;;
10882;SDS011;5494;51.796;10.952;2023-05-24T09:40:25;9.77;;;3.57;;
10882;SDS011;5494;51.796;10.952;2023-05-24T09:43:02;11.30;;;3.73;;
10882;SDS011;5494;51.796;10.952;2023-05-24T09:45:34;9.50;;;3.57;;
10882;SDS011;5494;51.796;10.952;2023-05-24T09:48:09;8.53;;;3.33;;
10882;SDS011;5494;51.796;10.952;2023-05-24T09:50:38;10.57;;;3.97;;
10882;SDS011;5494;51.796;10.952;2023-05-24T09:53:07;8.50;;;3.40;;
10882;SDS011;5494;51.796;10.952;2023-05-24T09:55:35;11.50;;;4.13;;
10882;SDS011;5494;51.796;10.952;2023-05-24T09:58:04;10.03;;;3.53;;
10882;SDS011;5494;51.796;10.952;2023-05-24T10:00:37;11.27;;;3.87;;
10882;SDS011;5494;51.796;10.952;2023-05-24T10:03:08;11.40;;;4.10;;
10882;SDS011;5494;51.796;10.952;2023-05-24T10:05:40;11.47;;;3.97;;
10882;SDS011;5494;51.796;10.952;2023-05-24T10:08:11;12.60;;;4.27;;
10882;SDS011;5494;51.796;10.952;2023-05-24T10:10:40;12.40;;;4.20;;
10882;SDS011;5494;51.796;10.952;2023-05-24T10:13:09;11.13;;;3.80;;
10882;SDS011;5494;51.796;10.952;2023-05-24T10:15:42;10.67;;;4.07;;
10882;SDS011;5494;51.796;10.952;2023-05-24T10:18:11;11.73;;;3.77;;
10882;SDS011;5494;51.796;10.952;2023-05-24T10:20:39;10.07;;;4.13;;
10882;SDS011;5494;51.796;10.952;2023-05-24T10:23:09;10.47;;;4.57;;
10882;SDS011;5494;51.796;10.952;2023-05-24T10:25:49;15.13;;;4.80;;
10882;SDS011;5494;51.796;10.952;2023-05-24T10:28:22;11.63;;;4.30;;
10882;SDS011;5494;51.796;10.952;2023-05-24T10:30:56;14.87;;;5.30;;
10882;SDS011;5494;51.796;10.952;2023-05-24T10:33:33;9.37;;;3.20;;
10882;SDS011;5494;51.796;10.952;2023-05-24T10:36:04;7.73;;;3.37;;
10882;SDS011;5494;51.796;10.952;2023-05-24T10:38:36;8.67;;;3.70;;
10882;SDS011;5494;51.796;10.952;2023-05-24T10:41:06;10.07;;;4.20;;
10882;SDS011;5494;51.796;10.952;2023-05-24T10:43:35;8.10;;;3.20;;
10882;SDS011;5494;51.796;10.952;2023-05-24T10:46:07;12.47;;;3.80;;
10882;SDS011;5494;51.796;10.952;2023-05-24T10:48:37;10.30;;;3.40;;
10882;SDS011;5494;51.796;10.952;2023-05-24T10:54:16;11.33;;;3.87;;
10882;SDS011;5494;51.796;10.952;2023-05-24T10:56:47;11.20;;;4.07;;
10882;SDS011;5494;51.796;10.952;2023-05-24T10:59:21;14.60;;;4.73;;
10882;SDS011;5494;51.796;10.952;2023-05-24T11:02:04;10.70;;;3.63;;
10882;SDS011;5494;51.796;10.952;2023-05-24T11:04:39;13.03;;;4.17;;
10882;SDS011;5494;51.796;10.952;2023-05-24T11:07:09;8.80;;;4.10;;
10882;SDS011;5494;51.796;10.952;2023-05-24T11:09:40;8.70;;;3.87;;
10882;SDS011;5494;51.796;10.952;2023-05-24T11:12:13;9.13;;;3.90;;
10882;SDS011;5494;51.796;10.952;2023-05-24T11:14:46;10.90;;;3.30;;
10882;SDS011;5494;51.796;10.952;2023-05-24T11:17:16;10.63;;;3.63;;
10882;SDS011;5494;51.796;10.952;2023-05-24T11:19:48;11.37;;;4.37;;
10882;SDS011;5494;51.796;10.952;2023-05-24T11:22:20;11.13;;;4.00;;
10882;SDS011;5494;51.796;10.952;2023-05-24T11:24:50;11.73;;;3.83;;
10882;SDS011;5494;51.796;10.952;2023-05-24T11:27:19;9.87;;;3.90;;
10882;SDS011;5494;51.796;10.952;2023-05-24T11:29:48;9.50;;;4.00;;
10882;SDS011;5494;51.796;10.952;2023-05-24T11:32:18;9.40;;;4.00;;
10882;SDS011;5494;51.796;10.952;2023-05-24T11:34:49;11.27;;;4.47;;
10882;SDS011;5494;51.796;10.952;2023-05-24T11:37:17;10.10;;;4.40;;
10882;SDS011;5494;51.796;10.952;2023-05-24T11:39:57;10.27;;;4.83;;
10882;SDS011;5494;51.796;10.952;2023-05-24T11:42:27;11.50;;;4.00;;
10882;SDS011;5494;51.796;10.952;2023-05-24T11:44:55;9.60;;;4.13;;
10882;SDS011;5494;51.796;10.952;2023-05-24T11:47:24;9.23;;;4.37;;
10882;SDS011;5494;51.796;10.952;2023-05-24T11:49:53;8.93;;;3.07;;
10882;SDS011;5494;51.796;10.952;2023-05-24T11:52:21;7.17;;;3.70;;
10882;SDS011;5494;51.796;10.952;2023-05-24T11:54:48;10.17;;;4.00;;
10882;SDS011;5494;51.796;10.952;2023-05-24T11:57:17;9.33;;;3.63;;
10882;SDS011;5494;51.796;10.952;2023-05-24T11:59:53;9.13;;;3.67;;
10882;SDS011;5494;51.796;10.952;2023-05-24T12:02:21;5.10;;;3.00;;
10882;SDS011;5494;51.796;10.952;2023-05-24T12:04:51;7.03;;;3.30;;
10882;SDS011;5494;51.796;10.952;2023-05-24T12:07:22;8.27;;;2.93;;
10882;SDS011;5494;51.796;10.952;2023-05-24T12:09:50;4.07;;;2.90;;
10882;SDS011;5494;51.796;10.952;2023-05-24T12:12:19;7.57;;;4.00;;
10882;SDS011;5494;51.796;10.952;2023-05-24T12:14:59;7.30;;;3.70;;
10882;SDS011;5494;51.796;10.952;2023-05-24T12:17:27;9.63;;;4.30;;
10882;SDS011;5494;51.796;10.952;2023-05-24T12:19:57;12.77;;;4.97;;
10882;SDS011;5494;51.796;10.952;2023-05-24T12:22:31;8.97;;;4.10;;
10882;SDS011;5494;51.796;10.952;2023-05-24T12:24:59;7.37;;;4.13;;
10882;SDS011;5494;51.796;10.952;2023-05-24T12:27:30;8.77;;;3.80;;
10882;SDS011;5494;51.796;10.952;2023-05-24T12:30:04;9.33;;;3.80;;
10882;SDS011;5494;51.796;10.952;2023-05-24T12:32:35;11.50;;;5.00;;
10882;SDS011;5494;51.796;10.952;2023-05-24T12:35:05;9.63;;;5.00;;
10882;SDS011;5494;51.796;10.952;2023-05-24T12:37:34;9.47;;;4.90;;
10882;SDS011;5494;51.796;10.952;2023-05-24T12:40:02;9.20;;;4.40;;
10882;SDS011;5494;51.796;10.952;2023-05-24T12:42:42;10.43;;;4.57;;
10882;SDS011;5494;51.796;10.952;2023-05-24T12:45:11;10.20;;;4.50;;
10882;SDS011;5494;51.796;10.952;2023-05-24T12:47:39;14.60;;;5.03;;
10882;SDS011;5494;51.796;10.952;2023-05-24T12:50:09;9.80;;;5.13;;
10882;SDS011;5494;51.796;10.952;2023-05-24T12:52:38;13.07;;;5.17;;
10882;SDS011;5494;51.796;10.952;2023-05-24T12:55:06;11.43;;;4.63;;
10882;SDS011;5494;51.796;10.952;2023-05-24T12:57:34;10.83;;;5.30;;
10882;SDS011;5494;51.796;10.952;2023-05-24T13:00:04;8.47;;;4.17;;
10882;SDS011;5494;51.796;10.952;2023-05-24T13:02:33;10.07;;;3.90;;
10882;SDS011;5494;51.796;10.952;2023-05-24T13:05:05;12.93;;;4.50;;
10882;SDS011;5494;51.796;10.952;2023-05-24T13:07:37;12.80;;;4.33;;
10882;SDS011;5494;51.796;10.952;2023-05-24T13:10:05;9.07;;;4.07;;
10882;SDS011;5494;51.796;10.952;2023-05-24T13:12:34;12.03;;;4.60;;
10882;SDS011;5494;51.796;10.952;2023-05-24T13:15:03;9.20;;;4.47;;
10882;SDS011;5494;51.796;10.952;2023-05-24T13:17:32;7.53;;;4.00;;
10882;SDS011;5494;51.796;10.952;2023-05-24T13:20:02;12.23;;;5.00;;
10882;SDS011;5494;51.796;10.952;2023-05-24T13:22:33;7.20;;;3.93;;
10882;SDS011;5494;51.796;10.952;2023-05-24T13:25:04;8.57;;;4.17;;
10882;SDS011;5494;51.796;10.952;2023-05-24T13:27:33;6.97;;;3.90;;
10882;SDS011;5494;51.796;10.952;2023-05-24T13:30:01;9.03;;;3.63;;
10882;SDS011;5494;51.796;10.952;2023-05-24T13:32:30;9.07;;;3.57;;
10882;SDS011;5494;51.796;10.952;2023-05-24T13:34:58;6.80;;;3.17;;
10882;SDS011;5494;51.796;10.952;2023-05-24T13:37:27;5.77;;;2.43;;
10882;SDS011;5494;51.796;10.952;2023-05-24T13:39:55;3.83;;;2.67;;
10882;SDS011;5494;51.796;10.952;2023-05-24T13:42:24;3.83;;;2.50;;
10882;SDS011;5494;51.796;10.952;2023-05-24T13:44:53;6.67;;;2.63;;
10882;SDS011;5494;51.796;10.952;2023-05-24T13:47:21;5.80;;;2.80;;
10882;SDS011;5494;51.796;10.952;2023-05-24T13:50:05;6.93;;;2.80;;
10882;SDS011;5494;51.796;10.952;2023-05-24T13:52:34;5.53;;;2.63;;
10882;SDS011;5494;51.796;10.952;2023-05-24T13:55:03;3.43;;;2.40;;
10882;SDS011;5494;51.796;10.952;2023-05-24T13:57:33;4.43;;;2.10;;
10882;SDS011;5494;51.796;10.952;2023-05-24T14:00:17;4.17;;;2.37;;
10882;SDS011;5494;51.796;10.952;2023-05-24T14:02:46;5.87;;;2.40;;
10882;SDS011;5494;51.796;10.952;2023-05-24T14:05:14;3.83;;;2.40;;
10882;SDS011;5494;51.796;10.952;2023-05-24T14:07:53;4.87;;;2.50;;
10882;SDS011;5494;51.796;10.952;2023-05-24T14:10:22;3.87;;;2.40;;
10882;SDS011;5494;51.796;10.952;2023-05-24T14:12:52;4.73;;;2.57;;
10882;SDS011;5494;51.796;10.952;2023-05-24T14:15:39;3.60;;;2.57;;
10882;SDS011;5494;51.796;10.952;2023-05-24T14:18:08;5.97;;;3.20;;
10882;SDS011;5494;51.796;10.952;2023-05-24T14:20:37;6.80;;;4.23;;
10882;SDS011;5494;51.796;10.952;2023-05-24T14:23:06;4.97;;;3.33;;
10882;SDS011;5494;51.796;10.952;2023-05-24T14:25:35;4.47;;;3.60;;
10882;SDS011;5494;51.796;10.952;2023-05-24T14:28:04;5.43;;;3.77;;
10882;SDS011;5494;51.796;10.952;2023-05-24T14:30:33;4.87;;;3.30;;
10882;SDS011;5494;51.796;10.952;2023-05-24T14:33:03;6.50;;;3.50;;
10882;SDS011;5494;51.796;10.952;2023-05-24T14:35:33;3.97;;;3.50;;
10882;SDS011;5494;51.796;10.952;2023-05-24T14:38:05;5.47;;;3.50;;
10882;SDS011;5494;51.796;10.952;2023-05-24T14:40:34;6.60;;;3.77;;
10882;SDS011;5494;51.796;10.952;2023-05-24T14:43:06;7.10;;;3.70;;
10882;SDS011;5494;51.796;10.952;2023-05-24T14:45:36;6.27;;;3.70;;
10882;SDS011;5494;51.796;10.952;2023-05-24T14:48:07;4.37;;;3.50;;
10882;SDS011;5494;51.796;10.952;2023-05-24T14:50:37;6.73;;;4.03;;
10882;SDS011;5494;51.796;10.952;2023-05-24T14:53:06;5.27;;;4.10;;
10882;SDS011;5494;51.796;10.952;2023-05-24T14:55:37;5.47;;;4.00;;
10882;SDS011;5494;51.796;10.952;2023-05-24T14:58:13;7.40;;;4.00;;